Time;durP1;ratioP1;P1;durP2;ratioP2;P2;SDS_P1;SDS_P2;PMS_P1;PMS_P2;Temp;Humidity;BMP_temperature;BMP_pressure;BME280_temperature;BME280_humidity;BME280_pressure;Samples;Min_cycle;Max_cycle;Signal;HPM_P1;HPM_P2
2022/01/05 00:01:42;;;;;;;0.60;0.50;;;;;;;4.72;88.18;94729.63;5030942;28;20055;-72
2022/01/05 00:04:09;;;;;;;1.33;0.60;;;;;;;4.70;88.34;94725.69;5030647;28;20103;-71
2022/01/05 00:06:35;;;;;;;2.50;0.75;;;;;;;4.70;88.73;94731.09;5030860;28;20052;-72
2022/01/05 00:09:02;;;;;;;1.30;0.75;;;;;;;4.69;88.58;94730.25;5030510;28;20523;-72
2022/01/05 00:11:28;;;;;;;1.20;0.73;;;;;;;4.69;88.82;94732.97;5030511;28;20137;-72
2022/01/05 00:13:56;;;;;;;1.20;0.90;;;;;;;4.65;89.16;94731.25;5030916;28;20048;-71
2022/01/05 00:16:22;;;;;;;2.03;0.90;;;;;;;4.64;89.53;94740.41;5030320;28;20231;-71
2022/01/05 00:18:50;;;;;;;2.90;1.10;;;;;;;4.60;89.53;94742.19;5030580;28;20053;-74
2022/01/05 00:21:17;;;;;;;1.58;1.00;;;;;;;4.59;89.68;94740.59;5030283;28;20046;-72
2022/01/05 00:23:43;;;;;;;2.92;1.10;;;;;;;4.56;89.95;94743.94;5030649;28;20052;-71
2022/01/05 00:26:10;;;;;;;2.58;1.02;;;;;;;4.54;90.05;94748.84;5030019;28;20056;-72
2022/01/05 00:28:37;;;;;;;1.02;0.70;;;;;;;4.53;89.10;94748.03;5030114;28;20398;-72
2022/01/05 00:31:04;;;;;;;2.17;0.90;;;;;;;4.52;89.33;94757.25;5030017;28;20053;-72
2022/01/05 00:33:30;;;;;;;1.20;0.85;;;;;;;4.47;89.08;94764.72;5030080;28;20057;-72
2022/01/05 00:35:58;;;;;;;1.33;0.98;;;;;;;4.36;89.35;94770.41;5030414;28;20052;-71
2022/01/05 00:38:25;;;;;;;1.08;0.90;;;;;;;4.28;88.88;94773.91;5029749;28;20052;-72
2022/01/05 00:40:51;;;;;;;1.40;1.00;;;;;;;4.22;89.20;94779.75;5029997;28;20677;-72
2022/01/05 00:43:18;;;;;;;1.10;0.73;;;;;;;4.14;89.42;94786.72;5029714;28;20053;-71
2022/01/05 00:45:44;;;;;;;0.80;0.60;;;;;;;3.91;88.08;94786.84;5030177;28;20048;-72
2022/01/05 00:48:10;;;;;;;1.17;0.60;;;;;;;3.80;88.69;94785.53;5028122;28;20056;-72
2022/01/05 00:50:37;;;;;;;0.73;0.60;;;;;;;3.74;88.76;94794.09;5028950;28;20543;-71
2022/01/05 00:53:05;;;;;;;0.85;0.65;;;;;;;3.67;89.98;94798.03;5029391;28;20046;-71
2022/01/05 00:55:31;;;;;;;0.70;0.60;;;;;;;3.61;90.54;94806.56;5029713;28;20048;-72
2022/01/05 00:57:58;;;;;;;1.27;0.77;;;;;;;3.56;90.69;94807.50;5029716;28;20578;-71
2022/01/05 01:00:24;;;;;;;1.55;0.95;;;;;;;3.50;89.98;94819.50;5028787;28;20132;-71
2022/01/05 01:02:51;;;;;;;0.40;0.30;;;;;;;3.45;90.01;94826.91;5029880;28;20060;-72
2022/01/05 01:05:17;;;;;;;0.40;0.40;;;;;;;3.33;91.06;94819.41;5029118;28;20050;-71
2022/01/05 01:07:44;;;;;;;0.50;0.30;;;;;;;3.35;91.42;94826.06;5029592;28;20045;-72
2022/01/05 01:10:13;;;;;;;0.30;0.30;;;;;;;3.37;90.78;94823.84;5028851;28;20073;-72
2022/01/05 01:12:39;;;;;;;1.13;0.80;;;;;;;3.39;90.65;94818.97;5029762;28;20049;-71
2022/01/05 01:15:09;;;;;;;0.70;0.52;;;;;;;3.40;90.20;94820.56;5029183;28;20050;-72
2022/01/05 01:17:35;;;;;;;1.45;0.70;;;;;;;3.37;90.31;94825.75;5029366;28;20037;-71
2022/01/05 01:20:02;;;;;;;1.35;0.95;;;;;;;3.36;90.07;94829.56;5028766;28;20053;-71
2022/01/05 01:22:30;;;;;;;1.10;0.82;;;;;;;3.33;89.52;94825.56;5028725;28;20053;-72
2022/01/05 01:24:57;;;;;;;1.38;1.00;;;;;;;3.29;89.33;94827.31;5029410;28;20053;-71
2022/01/05 01:27:25;;;;;;;1.48;1.17;;;;;;;3.33;89.40;94825.56;5029030;28;20049;-72
2022/01/05 01:29:51;;;;;;;1.38;1.02;;;;;;;3.25;89.29;94831.72;5028995;28;20057;-71
2022/01/05 01:32:18;;;;;;;2.00;1.05;;;;;;;3.21;90.27;94833.44;5028836;28;20058;-71
2022/01/05 01:34:44;;;;;;;1.33;1.00;;;;;;;3.16;90.31;94835.47;5028846;28;20516;-72
2022/01/05 01:37:11;;;;;;;1.85;1.00;;;;;;;3.10;91.19;94840.19;5028616;28;20053;-71
2022/01/05 01:39:37;;;;;;;1.73;1.02;;;;;;;3.05;91.57;94843.00;5028657;28;20140;-74
2022/01/05 01:42:04;;;;;;;1.95;0.90;;;;;;;3.00;91.74;94838.53;5028254;28;20049;-73
2022/01/05 01:44:32;;;;;;;1.65;1.10;;;;;;;2.99;92.04;94852.28;5028968;28;20049;-73
2022/01/05 01:46:59;;;;;;;2.13;1.40;;;;;;;3.03;92.08;94847.91;5028551;28;20045;-73
2022/01/05 01:49:26;;;;;;;2.38;1.38;;;;;;;3.04;92.30;94855.66;5028098;28;20512;-73
2022/01/05 01:51:52;;;;;;;3.53;1.30;;;;;;;3.00;91.76;94848.50;5028643;28;20108;-73
2022/01/05 01:54:19;;;;;;;1.50;1.00;;;;;;;2.88;91.65;94847.16;5028037;28;20054;-73
2022/01/05 01:56:47;;;;;;;1.30;0.80;;;;;;;2.84;92.13;94843.47;5028456;28;20556;-73
2022/01/05 01:59:14;;;;;;;1.52;1.17;;;;;;;2.87;92.32;94842.06;5028067;28;20050;-73
2022/01/05 02:01:42;;;;;;;1.83;1.13;;;;;;;2.88;92.32;94841.78;5028230;28;20073;-74
2022/01/05 02:04:09;;;;;;;1.85;1.10;;;;;;;2.93;92.57;94845.44;5028089;28;20053;-73
2022/01/05 02:06:35;;;;;;;2.00;1.30;;;;;;;2.92;92.35;94838.47;5028578;28;20128;-74
2022/01/05 02:09:04;;;;;;;2.40;1.60;;;;;;;2.93;92.59;94837.38;5027792;28;20064;-73
2022/01/05 02:11:32;;;;;;;2.63;1.58;;;;;;;2.91;92.85;94829.59;5028427;28;20495;-73
2022/01/05 02:13:59;;;;;;;2.10;1.30;;;;;;;2.86;92.25;94833.22;5028893;28;20400;-73
2022/01/05 02:16:30;;;;;;;1.98;1.10;;;;;;;2.88;92.22;94835.63;5027732;28;19925;-73
2022/01/05 02:19:01;;;;;;;1.90;1.17;;;;;;;2.83;91.87;94841.91;5028036;28;20052;-74
2022/01/05 02:21:31;;;;;;;1.70;1.30;;;;;;;2.75;92.18;94848.00;5027750;28;20049;-73
2022/01/05 02:23:57;;;;;;;1.80;1.05;;;;;;;2.70;92.62;94852.69;5027955;28;20054;-74
2022/01/05 02:26:24;;;;;;;1.92;1.30;;;;;;;2.70;93.04;94850.00;5027360;28;20052;-73
2022/01/05 02:28:51;;;;;;;2.25;1.42;;;;;;;2.76;93.33;94854.16;5028425;28;20505;-73
2022/01/05 02:31:17;;;;;;;1.73;1.27;;;;;;;2.80;93.17;94853.25;5027620;28;20524;-74
2022/01/05 02:33:44;;;;;;;2.92;1.60;;;;;;;2.85;93.04;94858.50;5027800;28;20045;-73
2022/01/05 02:36:13;;;;;;;2.13;1.55;;;;;;;2.83;92.39;94851.88;5026739;28;20062;-73
2022/01/05 02:38:41;;;;;;;2.40;1.42;;;;;;;2.84;92.80;94856.13;5027886;28;20056;-75
2022/01/05 02:41:10;;;;;;;2.50;1.42;;;;;;;2.88;93.13;94852.53;5026977;28;20041;-73
2022/01/05 02:43:37;;;;;;;1.48;1.08;;;;;;;2.88;92.74;94841.78;5028579;28;20053;-74
2022/01/05 02:46:05;;;;;;;1.98;1.15;;;;;;;2.82;92.11;94853.75;5027257;28;20057;-74
2022/01/05 02:48:32;;;;;;;1.48;1.00;;;;;;;2.73;92.40;94852.91;5028338;28;20053;-74
2022/01/05 02:51:00;;;;;;;2.17;1.20;;;;;;;2.72;92.89;94851.31;5027279;28;20099;-73
2022/01/05 02:53:26;;;;;;;1.90;1.10;;;;;;;2.76;93.18;94844.19;5027483;28;20049;-73
2022/01/05 02:55:54;;;;;;;1.73;1.10;;;;;;;2.82;93.52;94853.75;5027446;28;20052;-73
2022/01/05 02:58:21;;;;;;;1.75;1.20;;;;;;;2.90;93.42;94865.66;5027330;28;20054;-73
2022/01/05 03:00:47;;;;;;;1.52;1.10;;;;;;;2.94;93.28;94860.47;5027084;28;20054;-74
2022/01/05 03:03:14;;;;;;;1.63;1.10;;;;;;;3.00;93.01;94870.00;5027565;28;20045;-73
2022/01/05 03:05:41;;;;;;;1.60;1.10;;;;;;;2.98;92.60;94875.69;5027690;28;20093;-74
2022/01/05 03:08:07;;;;;;;1.00;0.70;;;;;;;2.95;92.20;94862.84;5027079;28;20053;-73
2022/01/05 03:10:34;;;;;;;1.40;1.00;;;;;;;2.93;92.48;94861.59;5027468;28;20056;-73
2022/01/05 03:13:02;;;;;;;1.20;0.90;;;;;;;2.91;92.61;94863.75;5027686;28;20049;-74
2022/01/05 03:15:28;;;;;;;1.40;0.93;;;;;;;2.88;92.87;94857.91;5027171;28;20045;-73
2022/01/05 03:17:55;;;;;;;1.45;0.98;;;;;;;2.87;92.86;94856.31;5027445;28;20049;-73
2022/01/05 03:20:22;;;;;;;1.40;1.08;;;;;;;2.90;93.23;94859.50;5026444;28;20352;-74
2022/01/05 03:22:49;;;;;;;1.05;0.85;;;;;;;2.91;93.15;94859.19;5027205;28;20125;-73
2022/01/05 03:25:17;;;;;;;1.35;1.00;;;;;;;2.90;93.23;94862.97;5026923;28;20057;-73
2022/01/05 03:27:44;;;;;;;1.30;0.80;;;;;;;2.99;93.70;94865.72;5027561;28;20046;-73
2022/01/05 03:30:14;;;;;;;1.40;1.00;;;;;;;3.04;92.88;94869.09;5026857;28;20680;-73
2022/01/05 03:32:55;;;;;;;1.35;0.80;;;;;;;3.06;92.96;94868.78;5026944;28;20049;-73
2022/01/05 03:35:22;;;;;;;1.83;1.08;;;;;;;3.00;92.61;94870.00;5026430;28;20049;-73
2022/01/05 03:37:48;;;;;;;1.08;0.75;;;;;;;2.89;92.93;94874.84;5027356;28;20050;-74
2022/01/05 03:40:15;;;;;;;1.55;1.02;;;;;;;2.86;93.12;94865.47;5026338;28;20059;-74
2022/01/05 03:42:42;;;;;;;1.30;0.90;;;;;;;2.85;93.47;94863.88;5027107;28;20053;-73
2022/01/05 03:45:09;;;;;;;1.90;0.70;;;;;;;2.92;93.48;94858.06;5027091;28;20128;-73
2022/01/05 03:47:37;;;;;;;1.63;0.90;;;;;;;2.97;93.78;94868.72;5029920;28;20049;-73
2022/01/05 03:50:04;;;;;;;0.90;0.70;;;;;;;2.92;92.88;94862.66;5030040;28;20053;-73
2022/01/05 03:52:30;;;;;;;2.38;0.50;;;;;;;2.86;93.18;94865.47;5030452;28;20061;-73
2022/01/05 03:54:57;;;;;;;0.60;0.50;;;;;;;2.85;93.26;94863.09;5030828;28;20049;-73
2022/01/05 03:57:24;;;;;;;2.28;0.70;;;;;;;2.82;93.25;94864.50;5030064;28;20053;-73
2022/01/05 03:59:51;;;;;;;1.35;0.80;;;;;;;2.82;93.35;94859.13;5030106;28;20060;-73
2022/01/05 04:02:18;;;;;;;1.40;0.90;;;;;;;2.80;93.49;94871.28;5029862;28;20056;-73
2022/01/05 04:04:46;;;;;;;0.95;0.60;;;;;;;2.76;93.51;94872.97;5030664;28;20045;-73
2022/01/05 04:07:13;;;;;;;1.17;0.70;;;;;;;2.75;93.50;94866.81;5030235;28;20060;-73
2022/01/05 04:09:40;;;;;;;0.60;0.60;;;;;;;2.75;93.64;94874.88;5030346;28;20061;-73
2022/01/05 04:12:07;;;;;;;1.42;0.70;;;;;;;2.71;93.92;94865.81;5032389;28;20058;-73
2022/01/05 04:14:34;;;;;;;1.77;0.60;;;;;;;2.71;94.01;94873.88;5030307;28;20041;-74
2022/01/05 04:17:00;;;;;;;0.98;0.68;;;;;;;2.71;93.78;94863.13;5030458;28;20069;-73
2022/01/05 04:19:27;;;;;;;1.55;0.70;;;;;;;2.72;93.60;94883.56;5029676;28;20045;-73
2022/01/05 04:21:55;;;;;;;1.13;0.70;;;;;;;2.73;93.70;94868.22;5029854;28;20053;-73
2022/01/05 04:24:21;;;;;;;1.35;0.52;;;;;;;2.81;93.92;94870.16;5029872;28;20054;-73
2022/01/05 04:26:48;;;;;;;1.08;0.65;;;;;;;2.79;93.78;94881.25;5030100;28;20049;-73
2022/01/05 04:29:14;;;;;;;1.75;0.80;;;;;;;2.73;93.68;94874.41;5029887;28;20064;-73
2022/01/05 04:31:41;;;;;;;0.95;0.70;;;;;;;2.69;93.91;94876.09;5029673;28;20045;-73
2022/01/05 04:34:07;;;;;;;1.27;0.63;;;;;;;2.73;93.83;94879.78;5029499;28;20041;-73
2022/01/05 04:36:34;;;;;;;1.05;0.40;;;;;;;2.68;93.67;94879.88;5030062;28;20057;-73
2022/01/05 04:39:01;;;;;;;0.70;0.60;;;;;;;2.61;93.92;94880.31;5029777;28;20060;-73
2022/01/05 04:41:28;;;;;;;0.60;0.60;;;;;;;2.63;93.95;94874.63;5031689;28;20053;-73
2022/01/05 04:43:54;;;;;;;0.60;0.50;;;;;;;2.60;93.99;94877.91;5030140;28;20049;-73
2022/01/05 04:46:21;;;;;;;1.20;0.60;;;;;;;2.60;94.34;94867.94;5029452;28;20057;-73
2022/01/05 04:48:47;;;;;;;0.68;0.55;;;;;;;2.62;94.22;94873.03;5030004;28;20056;-73
2022/01/05 04:51:14;;;;;;;0.80;0.60;;;;;;;2.62;94.29;94875.72;5029017;28;20053;-73
2022/01/05 04:53:40;;;;;;;1.08;0.52;;;;;;;2.67;94.41;94881.00;5030091;28;20045;-73
2022/01/05 04:56:08;;;;;;;0.45;0.30;;;;;;;2.69;94.14;94875.31;5029662;28;20499;-73
2022/01/05 04:58:35;;;;;;;5.00;0.50;;;;;;;2.68;93.73;94879.88;5043098;28;20051;-73
2022/01/05 05:01:01;;;;;;;0.52;0.30;;;;;;;2.67;93.74;94878.31;5049006;28;20567;-73
2022/01/05 05:03:28;;;;;;;0.43;0.30;;;;;;;2.67;93.62;94877.50;5049066;28;20041;-73
2022/01/05 05:05:54;;;;;;;0.50;0.30;;;;;;;2.69;93.75;94864.56;5049502;28;20049;-73
2022/01/05 05:08:21;;;;;;;0.50;0.40;;;;;;;2.73;93.54;94860.97;5049099;28;20048;-73
2022/01/05 05:10:47;;;;;;;0.52;0.30;;;;;;;2.72;93.13;94858.59;5043926;28;20060;-73
2022/01/05 05:13:15;;;;;;;0.35;0.20;;;;;;;2.79;93.26;94875.88;5029047;28;20058;-73
2022/01/05 05:15:42;;;;;;;0.47;0.32;;;;;;;2.80;93.41;94877.44;5029172;28;20041;-73
2022/01/05 05:18:09;;;;;;;0.43;0.30;;;;;;;2.75;93.23;94880.25;5028853;28;20045;-73
2022/01/05 05:20:35;;;;;;;0.77;0.35;;;;;;;2.73;93.60;94884.34;5028553;28;20408;-73
2022/01/05 05:23:02;;;;;;;0.60;0.28;;;;;;;2.74;93.96;94888.63;5028954;28;20445;-73
2022/01/05 05:25:29;;;;;;;0.30;0.20;;;;;;;2.77;94.16;94888.81;5029260;28;20446;-73
2022/01/05 05:27:56;;;;;;;0.52;0.28;;;;;;;2.77;93.91;94886.13;5029280;28;20046;-73
2022/01/05 05:30:23;;;;;;;0.30;0.20;;;;;;;2.84;94.11;94883.81;5028582;28;20060;-73
2022/01/05 05:32:54;;;;;;;0.28;0.25;;;;;;;2.88;94.23;94879.41;5028992;28;20049;-73
2022/01/05 05:35:21;;;;;;;0.60;0.47;;;;;;;2.91;93.75;94871.84;5028577;28;20130;-73
2022/01/05 05:37:47;;;;;;;0.55;0.40;;;;;;;2.94;93.29;94876.59;5028899;28;20049;-73
2022/01/05 05:40:14;;;;;;;1.13;0.20;;;;;;;2.95;92.95;94881.69;5031298;28;20041;-73
2022/01/05 05:42:40;;;;;;;0.40;0.20;;;;;;;2.93;92.67;94880.41;5049135;28;20052;-73
2022/01/05 05:45:08;;;;;;;1.00;0.40;;;;;;;2.93;92.62;94891.94;5047199;28;20060;-73
2022/01/05 05:47:36;;;;;;;0.70;0.30;;;;;;;2.94;92.61;94892.75;5046475;28;20064;-73
2022/01/05 05:50:03;;;;;;;0.22;0.22;;;;;;;2.93;92.77;94889.25;5048012;28;20045;-73
2022/01/05 05:52:29;;;;;;;0.50;0.40;;;;;;;2.92;92.55;94887.66;5048794;28;20403;-73
2022/01/05 05:54:56;;;;;;;1.77;0.20;;;;;;;2.93;92.49;94880.41;5048940;28;20797;-73
2022/01/05 05:57:23;;;;;;;0.45;0.35;;;;;;;2.92;92.79;94894.94;5047978;28;20048;-73
2022/01/05 05:59:49;;;;;;;1.02;0.20;;;;;;;2.97;93.05;94892.91;5048500;28;20052;-72
2022/01/05 06:02:16;;;;;;;0.47;0.20;;;;;;;3.03;93.09;94880.16;5048061;28;20537;-73
2022/01/05 06:04:43;;;;;;;2.20;0.85;;;;;;;3.07;92.78;94892.66;5048239;28;20790;-73
2022/01/05 06:07:10;;;;;;;0.10;0.10;;;;;;;3.06;92.59;94901.06;5048108;28;20049;-73
2022/01/05 06:09:37;;;;;;;0.50;0.30;;;;;;;3.01;92.52;94893.09;5047712;28;20393;-73
2022/01/05 06:12:04;;;;;;;0.50;0.50;;;;;;;3.03;93.00;94901.69;5031813;28;20519;-73
2022/01/05 06:14:30;;;;;;;0.57;0.30;;;;;;;3.04;92.63;94914.00;5028548;28;20045;-73
2022/01/05 06:16:57;;;;;;;0.40;0.30;;;;;;;3.01;92.62;94915.41;5028250;28;20048;-73
2022/01/05 06:19:23;;;;;;;0.73;0.20;;;;;;;2.99;92.84;94903.38;5027632;28;20053;-73
2022/01/05 06:21:51;;;;;;;0.32;0.20;;;;;;;2.94;92.99;94908.88;5027918;28;20049;-73
2022/01/05 06:24:18;;;;;;;0.30;0.30;;;;;;;2.96;93.49;94912.03;5027842;28;20537;-73
2022/01/05 06:26:45;;;;;;;0.22;0.10;;;;;;;2.90;92.99;94906.00;5028233;28;20057;-73
2022/01/05 06:29:13;;;;;;;0.40;0.20;;;;;;;2.90;93.23;94899.81;5027895;28;20053;-72
2022/01/05 06:31:39;;;;;;;0.22;0.10;;;;;;;2.93;93.29;94907.28;5028170;28;20095;-73
2022/01/05 06:34:06;;;;;;;0.93;0.25;;;;;;;2.80;93.22;94909.72;5027858;28;20050;-73
2022/01/05 06:36:32;;;;;;;0.30;0.30;;;;;;;2.80;93.50;94908.91;5028087;28;20042;-73
2022/01/05 06:39:01;;;;;;;0.35;0.30;;;;;;;2.71;93.09;94922.28;5027927;28;20060;-73
2022/01/05 06:41:28;;;;;;;0.50;0.25;;;;;;;2.71;93.75;94922.28;5029775;28;20554;-73
2022/01/05 06:43:54;;;;;;;0.25;0.20;;;;;;;2.71;93.69;94916.88;5027860;28;20057;-73
2022/01/05 06:46:21;;;;;;;0.47;0.30;;;;;;;2.79;93.61;94912.72;5027489;28;20049;-73
2022/01/05 06:48:47;;;;;;;0.60;0.22;;;;;;;2.83;93.66;94909.09;5027625;28;20057;-73
2022/01/05 06:51:14;;;;;;;0.32;0.30;;;;;;;2.84;92.97;94893.78;5026967;28;20439;-75
2022/01/05 06:53:40;;;;;;;0.22;0.20;;;;;;;2.85;92.87;94896.16;5027977;28;20084;-73
2022/01/05 06:56:08;;;;;;;0.40;0.15;;;;;;;2.87;92.87;94901.22;5027160;28;20057;-73
2022/01/05 06:58:35;;;;;;;0.57;0.20;;;;;;;2.91;93.06;94904.88;5027706;28;20068;-73
2022/01/05 07:01:02;;;;;;;0.20;0.20;;;;;;;2.93;92.63;94896.53;5026872;28;20057;-73
2022/01/05 07:03:28;;;;;;;0.20;0.17;;;;;;;2.93;92.15;94912.66;5028152;28;20049;-74
2022/01/05 07:05:55;;;;;;;0.10;0.10;;;;;;;2.92;92.12;94929.88;5027729;28;20060;-73
2022/01/05 07:08:21;;;;;;;1.52;0.20;;;;;;;2.90;92.75;94924.81;5026985;28;20049;-73
2022/01/05 07:10:48;;;;;;;0.40;0.40;;;;;;;2.97;92.83;94924.38;5029903;28;20058;-73
2022/01/05 07:13:15;;;;;;;0.20;0.10;;;;;;;2.97;92.68;94929.75;5027219;28;20111;-73
2022/01/05 07:15:42;;;;;;;1.42;0.20;;;;;;;3.05;92.85;94939.81;5027335;28;20060;-74
2022/01/05 07:18:09;;;;;;;0.30;0.30;;;;;;;3.11;92.14;94925.94;5027071;28;20045;-73
2022/01/05 07:20:35;;;;;;;0.55;0.30;;;;;;;3.20;91.30;94926.00;5027516;28;20045;-74
2022/01/05 07:23:01;;;;;;;0.70;0.40;;;;;;;3.28;91.21;94930.63;5030754;28;20049;-73
2022/01/05 07:25:28;;;;;;;0.22;0.20;;;;;;;3.33;90.74;94921.63;5030684;28;20045;-75
2022/01/05 07:27:54;;;;;;;0.30;0.28;;;;;;;3.39;90.53;94929.31;5030419;28;20057;-74
2022/01/05 07:30:22;;;;;;;0.10;0.10;;;;;;;3.45;89.74;94939.94;5030759;28;20054;-75
2022/01/05 07:32:49;;;;;;;0.38;0.20;;;;;;;3.51;89.80;94949.47;5031259;28;20045;-75
2022/01/05 07:35:15;;;;;;;0.30;0.20;;;;;;;3.52;89.46;94961.81;5030628;28;20518;-75
2022/01/05 07:37:42;;;;;;;0.73;0.20;;;;;;;3.55;89.54;94958.50;5031173;28;20052;-75
2022/01/05 07:40:10;;;;;;;0.35;0.25;;;;;;;3.55;89.30;94953.94;5032535;28;20052;-74
2022/01/05 07:42:36;;;;;;;0.55;0.20;;;;;;;3.57;89.26;94956.31;5030810;28;20412;-75
2022/01/05 07:45:05;;;;;;;0.45;0.20;;;;;;;3.53;89.28;94952.63;5030587;28;20049;-73
2022/01/05 07:47:34;;;;;;;0.10;0.10;;;;;;;3.49;89.28;94957.03;5031025;28;20056;-74
2022/01/05 07:50:00;;;;;;;0.52;0.30;;;;;;;3.45;89.28;94962.25;5030338;28;20054;-74
2022/01/05 07:52:27;;;;;;;0.20;0.20;;;;;;;3.44;89.47;94973.31;5033068;28;20041;-75
2022/01/05 07:54:53;;;;;;;0.50;0.20;;;;;;;3.48;89.92;94977.00;5049624;28;20508;-76
2022/01/05 07:57:20;;;;;;;0.30;0.20;;;;;;;3.44;89.89;94973.31;5049625;28;20053;-76
2022/01/05 07:59:47;;;;;;;0.30;0.22;;;;;;;3.45;90.09;94983.00;5050179;28;20053;-75
2022/01/05 08:02:13;;;;;;;0.85;0.22;;;;;;;3.43;90.40;94980.59;5049780;28;20048;-76
2022/01/05 08:04:41;;;;;;;1.20;0.28;;;;;;;3.42;90.05;94988.97;5049841;28;20440;-77
2022/01/05 08:07:08;;;;;;;0.20;0.20;;;;;;;3.41;90.41;94980.13;5049800;28;20492;-75
2022/01/05 08:09:34;;;;;;;0.20;0.20;;;;;;;3.38;90.26;94988.78;5050185;28;20404;-77
2022/01/05 08:12:01;;;;;;;1.55;0.20;;;;;;;3.35;90.31;94982.13;5034649;28;20057;-76
2022/01/05 08:14:27;;;;;;;0.68;0.25;;;;;;;3.36;90.79;94989.09;5029941;28;20056;-76
2022/01/05 08:16:53;;;;;;;0.20;0.20;;;;;;;3.34;91.05;94994.00;5044681;28;20052;-75
2022/01/05 08:19:20;;;;;;;1.65;0.30;;;;;;;3.35;91.19;95000.97;5049183;28;20049;-77
2022/01/05 08:21:48;;;;;;;0.38;0.30;;;;;;;3.30;90.93;95002.97;5049597;28;20049;-76
2022/01/05 08:24:14;;;;;;;1.55;0.38;;;;;;;3.35;91.19;95002.88;5049184;28;20801;-77
2022/01/05 08:26:41;;;;;;;0.30;0.30;;;;;;;3.34;90.87;95010.16;5050118;28;20049;-77
2022/01/05 08:29:07;;;;;;;0.95;0.30;;;;;;;3.33;90.96;95024.69;5049362;28;20049;-76
2022/01/05 08:31:34;;;;;;;1.23;0.28;;;;;;;3.35;90.89;95025.19;5049671;28;20049;-77
2022/01/05 08:34:00;;;;;;;1.25;0.40;;;;;;;3.36;90.58;95040.22;5049961;28;20045;-76
2022/01/05 08:36:27;;;;;;;0.20;0.20;;;;;;;3.34;90.82;95037.06;5049426;28;20158;-77
2022/01/05 08:38:55;;;;;;;0.30;0.30;;;;;;;3.38;91.17;95043.41;5049433;28;20080;-76
2022/01/05 08:41:21;;;;;;;0.57;0.20;;;;;;;3.41;90.64;95052.78;5038804;28;22294;-76
2022/01/05 08:43:48;;;;;;;2.28;0.32;;;;;;;3.45;90.56;95058.34;5029829;28;20055;-76
2022/01/05 08:46:15;;;;;;;0.55;0.30;;;;;;;3.45;90.28;95063.72;5029332;28;20444;-77
2022/01/05 08:48:43;;;;;;;0.20;0.20;;;;;;;3.42;89.95;95075.88;5029396;28;20041;-76
2022/01/05 08:51:09;;;;;;;0.38;0.20;;;;;;;3.39;90.06;95088.06;5028549;28;20052;-76
2022/01/05 08:53:36;;;;;;;0.70;0.50;;;;;;;3.40;90.08;95095.03;5029970;28;20045;-75
2022/01/05 08:56:04;;;;;;;0.20;0.20;;;;;;;3.35;89.49;95095.13;5027719;28;20416;-75
2022/01/05 08:58:31;;;;;;;1.80;0.35;;;;;;;3.33;89.63;95110.78;5029292;28;20045;-76
2022/01/05 09:00:57;;;;;;;0.40;0.30;;;;;;;3.34;90.07;95096.25;5028709;28;20060;-76
2022/01/05 09:03:24;;;;;;;0.30;0.22;;;;;;;3.29;90.16;95093.66;5028813;28;20056;-75
2022/01/05 09:05:51;;;;;;;0.65;0.38;;;;;;;3.30;89.92;95100.63;5029257;28;20046;-75
2022/01/05 09:08:17;;;;;;;0.47;0.30;;;;;;;3.29;90.26;95108.97;5028761;28;20053;-76
2022/01/05 09:10:45;;;;;;;0.32;0.30;;;;;;;3.29;90.21;95115.19;5031506;28;20429;-75
2022/01/05 09:13:14;;;;;;;0.52;0.40;;;;;;;3.28;89.98;95118.94;5028843;28;20053;-75
2022/01/05 09:15:41;;;;;;;0.68;0.30;;;;;;;3.26;89.71;95115.78;5029635;28;20045;-76
2022/01/05 09:18:08;;;;;;;0.30;0.30;;;;;;;3.24;89.77;95118.00;5028285;28;20053;-77
2022/01/05 09:20:35;;;;;;;0.32;0.28;;;;;;;3.28;89.53;95118.94;5028672;28;20045;-76
2022/01/05 09:23:02;;;;;;;0.55;0.40;;;;;;;3.31;89.57;95118.38;5028880;28;20057;-76
2022/01/05 09:25:29;;;;;;;0.47;0.47;;;;;;;3.35;89.60;95132.81;5028879;28;20045;-75
2022/01/05 09:27:55;;;;;;;0.63;0.57;;;;;;;3.26;88.24;95136.50;5028554;28;20068;-74
2022/01/05 09:30:25;;;;;;;1.23;0.85;;;;;;;3.25;88.67;95141.09;5028262;28;20050;-75
2022/01/05 09:32:52;;;;;;;1.35;0.80;;;;;;;3.23;88.90;95150.53;5029083;28;20049;-75
2022/01/05 09:35:21;;;;;;;1.17;0.88;;;;;;;3.22;89.18;95168.59;5028518;28;20049;-75
2022/01/05 09:37:54;;;;;;;2.30;1.33;;;;;;;3.18;90.15;95183.72;5029021;28;20049;-75
2022/01/05 09:43:07;;;;;;;1.75;1.23;;;;;;;3.12;89.98;95184.94;5028296;28;20515;-76
2022/01/05 09:45:36;;;;;;;1.80;1.40;;;;;;;3.08;89.97;95194.69;5028348;28;20049;-75
2022/01/05 09:48:24;;;;;;;3.65;2.45;;;;;;;3.00;88.75;95187.31;5026953;28;20076;-74
2022/01/05 09:50:58;;;;;;;2.85;2.15;;;;;;;3.03;88.39;95203.66;5028806;28;20092;-75
2022/01/05 09:53:24;;;;;;;;;;;;;;;3.03;88.16;95197.50;5028353;28;20049;-75
2022/01/05 09:55:52;;;;;;;3.97;2.88;;;;;;;3.06;88.07;95213.03;5028410;28;19932;-75
2022/01/05 09:58:20;;;;;;;4.07;2.70;;;;;;;3.00;86.81;95219.59;5027915;28;20148;-76
2022/01/05 10:00:48;;;;;;;3.33;2.65;;;;;;;2.90;86.36;95231.34;5027858;28;20061;-75
2022/01/05 10:03:15;;;;;;;5.22;3.00;;;;;;;2.81;85.99;95230.41;5028185;28;20045;-75
2022/01/05 10:05:42;;;;;;;4.00;2.20;;;;;;;2.87;85.37;95234.59;5028281;28;20576;-76
2022/01/05 10:08:08;;;;;;;4.63;2.58;;;;;;;2.88;84.09;95239.69;5027231;28;20056;-75
2022/01/05 10:10:35;;;;;;;3.30;2.47;;;;;;;2.86;84.53;95233.00;5030412;28;20045;-73
2022/01/05 10:13:02;;;;;;;2.85;2.35;;;;;;;2.84;84.18;95254.81;5028527;28;20060;-76
2022/01/05 10:15:28;;;;;;;4.70;2.50;;;;;;;2.91;84.37;95249.06;5027495;28;20484;-76
2022/01/05 10:18:11;;;;;;;3.72;2.20;;;;;;;2.99;83.68;95251.06;5028070;28;20065;-75
2022/01/05 10:20:37;;;;;;;7.10;2.63;;;;;;;3.01;82.63;95253.47;5027661;28;20045;-75
2022/01/05 10:23:04;;;;;;;3.35;2.20;;;;;;;2.92;81.34;95247.16;5027594;28;20072;-75
2022/01/05 10:25:31;;;;;;;2.97;2.15;;;;;;;2.95;80.73;95255.44;5028086;28;20071;-75
2022/01/05 10:27:59;;;;;;;4.68;3.13;;;;;;;3.07;82.55;95258.44;5027801;28;20138;-75
2022/01/05 10:30:35;;;;;;;3.80;2.50;;;;;;;3.24;81.92;95257.88;5027175;28;20045;-75
2022/01/05 10:33:01;;;;;;;4.65;2.60;;;;;;;3.44;82.74;95255.88;5027814;28;20053;-75
2022/01/05 10:35:29;;;;;;;3.10;2.10;;;;;;;3.52;79.94;95263.25;5027811;28;20547;-76
2022/01/05 10:37:58;;;;;;;3.83;2.10;;;;;;;3.56;79.43;95264.25;5027766;28;20076;-75
2022/01/05 10:40:25;;;;;;;3.60;2.15;;;;;;;3.65;79.78;95267.81;5029396;28;20056;-77
2022/01/05 10:42:55;;;;;;;4.75;2.05;;;;;;;3.70;77.53;95289.25;5040483;28;20400;-75
2022/01/05 10:45:23;;;;;;;5.90;2.42;;;;;;;3.69;77.97;95289.56;5046949;28;20052;-75
2022/01/05 10:48:04;;;;;;;5.80;2.53;;;;;;;3.86;78.28;95282.50;5047737;28;20061;-75
2022/01/05 10:50:32;;;;;;;4.10;2.17;;;;;;;3.99;78.74;95280.88;5047081;28;20072;-75
2022/01/05 10:52:59;;;;;;;4.78;2.03;;;;;;;3.92;75.75;95277.78;5047548;28;20491;-75
2022/01/05 10:55:29;;;;;;;2.90;1.80;;;;;;;3.64;74.89;95283.19;5047086;28;20064;-75
2022/01/05 10:57:59;;;;;;;3.80;2.30;;;;;;;3.72;75.66;95297.84;5051529;28;20057;-75
2022/01/05 11:00:33;;;;;;;6.00;1.60;;;;;;;3.57;74.67;95298.16;5050154;28;20041;-75
2022/01/05 11:03:00;;;;;;;3.15;1.95;;;;;;;3.33;74.07;95299.13;5051624;28;20531;-75
2022/01/05 11:05:27;;;;;;;2.40;1.30;;;;;;;3.22;74.10;95308.47;5051415;28;20052;-75
2022/01/05 11:08:06;;;;;;;2.90;1.67;;;;;;;3.13;75.26;95312.94;5051297;28;20049;-75
2022/01/05 11:10:33;;;;;;;2.97;1.35;;;;;;;3.10;75.03;95316.22;5047647;28;20038;-75
2022/01/05 11:13:00;;;;;;;3.05;1.63;;;;;;;3.01;75.65;95323.38;5031682;28;20053;-76
2022/01/05 11:15:30;;;;;;;6.82;1.80;;;;;;;3.05;75.96;95330.56;5030260;28;20046;-76
2022/01/05 11:18:11;;;;;;;4.38;1.52;;;;;;;3.10;74.90;95337.75;5031210;28;20057;-77
2022/01/05 11:20:39;;;;;;;2.50;1.42;;;;;;;3.03;75.06;95338.16;5030960;28;20042;-75
2022/01/05 11:23:07;;;;;;;3.35;1.50;;;;;;;3.04;74.53;95345.13;5030927;28;20050;-72
2022/01/05 11:25:36;;;;;;;5.28;1.52;;;;;;;3.02;73.51;95351.88;5031277;28;20095;-74
2022/01/05 11:28:03;;;;;;;3.05;1.50;;;;;;;2.98;74.26;95348.97;5031018;28;20140;-73
2022/01/05 11:30:30;;;;;;;5.28;1.70;;;;;;;2.83;76.33;95354.59;5030497;28;20543;-75
2022/01/05 11:32:56;;;;;;;3.70;1.50;;;;;;;2.87;76.26;95356.41;5033055;28;20049;-74
2022/01/05 11:35:23;;;;;;;6.57;1.73;;;;;;;2.91;77.03;95363.88;5049299;28;20048;-75
2022/01/05 11:37:50;;;;;;;2.13;1.40;;;;;;;2.90;74.61;95367.66;5051175;28;20495;-75
2022/01/05 11:40:19;;;;;;;6.75;1.75;;;;;;;2.78;76.35;95374.31;5048826;28;20439;-75
2022/01/05 11:42:49;;;;;;;3.38;1.73;;;;;;;2.73;76.91;95371.69;5030840;28;20513;-77
2022/01/05 11:45:30;;;;;;;5.82;2.15;;;;;;;2.79;77.61;95381.25;5030344;28;20099;-75